createdAt,value
2022-10-28T00:01:24.207Z,6.59
2022-10-28T00:03:57.139Z,6.99
2022-10-28T00:06:30.461Z,6.29
2022-10-28T00:08:58.930Z,6.17
2022-10-28T00:11:31.929Z,6.34
2022-10-28T00:14:01.956Z,6.09
2022-10-28T00:16:32.020Z,6.84
2022-10-28T00:19:00.648Z,6.61
2022-10-28T00:21:30.777Z,6.34
2022-10-28T00:23:59.285Z,6.53
2022-10-28T00:26:32.407Z,6.98
2022-10-28T00:29:08.359Z,7.08
2022-10-28T00:31:36.809Z,7.38
2022-10-28T00:34:06.478Z,6.80
2022-10-28T00:36:36.875Z,7.33
2022-10-28T00:39:15.145Z,7.48
2022-10-28T00:41:46.426Z,7.09
2022-10-28T00:44:51.589Z,7.23
2022-10-28T00:47:38.937Z,6.92
2022-10-28T00:50:31.777Z,6.81
2022-10-28T00:53:31.376Z,6.66
2022-10-28T00:56:00.874Z,6.08
2022-10-28T00:58:29.703Z,6.28
2022-10-28T01:00:58.061Z,6.82
2022-10-28T01:03:26.429Z,6.53
2022-10-28T01:05:54.726Z,6.98
2022-10-28T01:08:22.997Z,7.12
2022-10-28T01:11:03.410Z,7.05
2022-10-28T01:13:38.215Z,7.21
2022-10-28T01:16:26.939Z,7.19
2022-10-28T01:19:23.204Z,5.46
2022-10-28T01:22:07.521Z,5.27
2022-10-28T01:24:45.372Z,6.15
2022-10-28T01:27:28.632Z,6.66
2022-10-28T01:30:17.410Z,6.62
2022-10-28T01:32:48.941Z,6.58
2022-10-28T01:35:43.160Z,5.78
2022-10-28T01:38:48.590Z,5.88
2022-10-28T01:41:45.666Z,6.51
2022-10-28T01:44:20.488Z,5.89
2022-10-28T01:47:05.085Z,6.53
2022-10-28T01:49:42.699Z,6.31
2022-10-28T01:52:13.935Z,6.42
2022-10-28T01:54:43.870Z,5.04
2022-10-28T01:57:12.764Z,5.02
2022-10-28T01:59:41.167Z,6.00
2022-10-28T02:02:09.632Z,6.52
2022-10-28T02:04:37.932Z,6.25
2022-10-28T02:07:06.244Z,6.47
2022-10-28T02:10:03.058Z,5.19
2022-10-28T02:12:35.569Z,5.38
2022-10-28T02:15:39.325Z,5.90
2022-10-28T02:18:15.609Z,5.70
2022-10-28T02:20:58.925Z,5.75
2022-10-28T02:23:46.458Z,6.34
2022-10-28T02:26:22.589Z,6.47
2022-10-28T02:29:06.897Z,6.62
2022-10-28T02:31:41.007Z,6.50
2022-10-28T02:34:14.851Z,6.62
2022-10-28T02:36:45.727Z,6.18
2022-10-28T02:39:13.959Z,6.30
2022-10-28T02:41:55.628Z,6.46
2022-10-28T02:44:31.999Z,6.15
2022-10-28T02:47:02.517Z,5.43
2022-10-28T02:49:30.935Z,5.73
2022-10-28T02:52:00.587Z,6.08
2022-10-28T02:54:35.373Z,5.88
2022-10-28T02:57:06.421Z,5.21
2022-10-28T02:59:34.715Z,4.36
2022-10-28T03:02:03.282Z,4.67
2022-10-28T03:04:31.790Z,4.21
2022-10-28T03:07:00.149Z,4.89
2022-10-28T03:09:28.949Z,4.56
2022-10-28T03:11:57.376Z,4.35
2022-10-28T03:14:25.713Z,4.83
2022-10-28T03:16:54.028Z,5.44
2022-10-28T03:19:22.852Z,4.68
2022-10-28T03:21:51.859Z,4.72
2022-10-28T03:24:20.162Z,5.04
2022-10-28T03:26:48.402Z,4.43
2022-10-28T03:29:16.645Z,4.65
2022-10-28T03:31:44.953Z,5.10
2022-10-28T03:34:13.243Z,5.32
2022-10-28T03:36:41.511Z,5.53
2022-10-28T03:39:09.819Z,4.04
2022-10-28T03:41:38.090Z,4.82
2022-10-28T03:44:07.026Z,5.01
2022-10-28T03:46:36.167Z,5.40
2022-10-28T03:49:05.431Z,5.61
2022-10-28T03:51:33.705Z,5.67
2022-10-28T03:54:02.172Z,4.16
2022-10-28T03:56:30.997Z,5.10
2022-10-28T03:58:59.321Z,5.16
2022-10-28T04:01:27.731Z,4.08
2022-10-28T04:03:56.171Z,3.89
2022-10-28T04:06:25.097Z,3.84
2022-10-28T04:08:53.468Z,4.14
2022-10-28T04:11:22.271Z,4.40
2022-10-28T04:13:50.635Z,4.66
2022-10-28T04:16:18.996Z,4.07
2022-10-28T04:18:47.409Z,4.56
2022-10-28T04:21:15.735Z,3.87
2022-10-28T04:23:44.685Z,3.97
2022-10-28T04:26:13.150Z,3.83
2022-10-28T04:28:41.504Z,3.46
2022-10-28T04:31:12.420Z,3.78
2022-10-28T04:33:40.757Z,3.99
2022-10-28T04:36:09.392Z,4.84
2022-10-28T04:38:37.712Z,4.71
2022-10-28T04:41:06.290Z,3.69
2022-10-28T04:43:34.677Z,3.77
2022-10-28T04:46:06.799Z,3.82
2022-10-28T04:48:35.349Z,4.06
2022-10-28T04:51:03.873Z,4.56
2022-10-28T04:53:32.117Z,4.41
2022-10-28T04:56:00.389Z,4.93
2022-10-28T04:58:28.717Z,4.91
2022-10-28T05:00:57.103Z,4.73
2022-10-28T05:03:25.533Z,5.17
2022-10-28T05:05:53.910Z,5.20
2022-10-28T05:08:22.175Z,5.26
2022-10-28T05:10:51.433Z,4.94
2022-10-28T05:13:19.774Z,4.41
2022-10-28T05:15:51.179Z,5.13
2022-10-28T05:18:19.582Z,5.13
2022-10-28T05:20:52.947Z,5.10
2022-10-28T05:23:25.812Z,5.27
2022-10-28T05:25:56.861Z,5.34
2022-10-28T05:28:25.249Z,4.29
2022-10-28T05:30:54.295Z,3.94
2022-10-28T05:33:22.751Z,4.30
2022-10-28T05:35:51.271Z,4.66
2022-10-28T05:38:19.584Z,4.93
2022-10-28T05:40:47.886Z,5.32
2022-10-28T05:43:16.265Z,5.59
2022-10-28T05:45:44.546Z,5.88
2022-10-28T05:48:12.935Z,5.95
2022-10-28T05:50:41.888Z,5.83
2022-10-28T05:53:10.849Z,5.98
2022-10-28T05:55:40.905Z,6.02
2022-10-28T05:58:11.075Z,6.28
2022-10-28T06:00:39.367Z,6.76
2022-10-28T06:03:12.403Z,6.90
2022-10-28T06:05:42.444Z,6.92
2022-10-28T06:08:14.191Z,7.55
2022-10-28T06:10:42.787Z,8.29
2022-10-28T06:13:10.259Z,9.14
2022-10-28T06:15:38.567Z,9.39
2022-10-28T06:18:06.924Z,9.23
2022-10-28T06:20:35.373Z,9.59
2022-10-28T06:23:03.703Z,10.31
2022-10-28T06:25:32.175Z,11.30
2022-10-28T06:28:01.378Z,11.90
2022-10-28T06:30:29.781Z,12.28
2022-10-28T06:32:58.121Z,12.69
2022-10-28T06:35:26.499Z,13.07
2022-10-28T06:37:55.739Z,13.94
2022-10-28T06:40:24.807Z,14.84
2022-10-28T06:42:59.985Z,15.31
2022-10-28T06:45:29.058Z,15.25
2022-10-28T06:47:59.750Z,15.39
2022-10-28T06:50:28.657Z,15.96
2022-10-28T06:52:57.532Z,16.76
2022-10-28T06:55:26.401Z,17.10
2022-10-28T06:57:55.286Z,17.56
2022-10-28T07:00:23.883Z,18.56
2022-10-28T07:02:53.497Z,19.63
2022-10-28T07:05:22.835Z,20.61
2022-10-28T07:07:51.405Z,21.09
2022-10-28T07:10:19.935Z,21.14
2022-10-28T07:12:48.265Z,21.93
2022-10-28T07:15:16.626Z,21.86
2022-10-28T07:17:44.983Z,22.46
2022-10-28T07:20:13.359Z,22.11
2022-10-28T07:22:41.739Z,21.90
2022-10-28T07:25:10.288Z,21.97
2022-10-28T07:27:38.723Z,21.63
2022-10-28T07:30:07.653Z,20.83
2022-10-28T07:32:36.080Z,21.85
2022-10-28T07:35:04.738Z,22.61
2022-10-28T07:37:33.240Z,23.14
2022-10-28T07:40:01.957Z,23.72
2022-10-28T07:42:30.332Z,24.03
2022-10-28T07:44:58.910Z,24.58
2022-10-28T07:47:27.253Z,25.13
2022-10-28T07:49:55.905Z,25.43
2022-10-28T07:52:24.293Z,25.62
2022-10-28T07:54:52.915Z,26.04
2022-10-28T07:57:21.291Z,26.26
2022-10-28T07:59:50.406Z,26.32
2022-10-28T08:02:22.183Z,26.30
2022-10-28T08:04:50.707Z,25.42
2022-10-28T08:07:19.261Z,25.07
2022-10-28T08:09:47.559Z,24.62
2022-10-28T08:12:16.017Z,23.67
2022-10-28T08:14:44.359Z,22.58
2022-10-28T08:17:12.704Z,21.91
2022-10-28T08:19:41.010Z,21.79
2022-10-28T08:22:09.419Z,20.74
2022-10-28T08:24:37.867Z,20.12
2022-10-28T08:27:06.238Z,21.75
2022-10-28T08:29:34.611Z,22.57
2022-10-28T08:32:02.915Z,23.87
2022-10-28T08:34:31.669Z,24.96
2022-10-28T08:37:00.631Z,24.93
2022-10-28T08:39:29.107Z,24.48
2022-10-28T08:42:00.390Z,23.04
2022-10-28T08:44:54.247Z,22.22
2022-10-28T08:47:31.863Z,20.74
2022-10-28T08:50:03.937Z,20.29
2022-10-28T08:53:00.462Z,19.61
2022-10-28T08:55:30.160Z,18.89
2022-10-28T08:58:20.432Z,18.67
2022-10-28T09:00:52.337Z,18.26
2022-10-28T09:03:25.842Z,18.04
2022-10-28T09:05:57.925Z,18.18
2022-10-28T09:08:28.999Z,17.98
2022-10-28T09:11:18.343Z,17.73
2022-10-28T09:14:21.446Z,17.45
2022-10-28T09:16:51.766Z,17.52
2022-10-28T09:19:35.818Z,17.98
2022-10-28T09:22:28.953Z,18.33
2022-10-28T09:25:00.338Z,16.92
2022-10-28T09:27:42.552Z,17.68
2022-10-28T09:30:23.050Z,18.02
2022-10-28T09:33:06.722Z,17.74
2022-10-28T09:35:41.754Z,17.86
2022-10-28T09:38:18.900Z,17.50
2022-10-28T09:40:51.413Z,17.13
2022-10-28T09:43:24.104Z,17.83
2022-10-28T09:45:54.011Z,17.92
2022-10-28T09:48:37.563Z,18.03
2022-10-28T09:51:06.182Z,18.74
2022-10-28T09:53:45.347Z,18.25
2022-10-28T09:56:13.687Z,18.62
2022-10-28T09:58:47.199Z,18.38
2022-10-28T10:01:17.241Z,18.71
2022-10-28T10:03:47.785Z,18.26
2022-10-28T10:06:24.633Z,18.05
2022-10-28T10:08:55.668Z,18.77
2022-10-28T10:11:39.176Z,18.99
2022-10-28T10:14:10.003Z,19.18
2022-10-28T10:16:47.513Z,18.73
2022-10-28T10:19:15.969Z,18.97
2022-10-28T10:21:51.963Z,18.61
2022-10-28T10:24:29.796Z,18.47
2022-10-28T10:27:19.179Z,19.50
2022-10-28T10:29:51.923Z,19.56
2022-10-28T10:32:40.597Z,19.06
2022-10-28T10:35:20.484Z,19.82
2022-10-28T10:37:48.933Z,20.02
2022-10-28T10:40:24.766Z,20.11
2022-10-28T10:43:12.732Z,19.17
2022-10-28T10:45:42.098Z,19.40
2022-10-28T10:48:15.060Z,18.99
2022-10-28T10:50:45.326Z,18.84
2022-10-28T10:53:21.525Z,19.29
2022-10-28T10:56:01.579Z,19.37
2022-10-28T10:58:41.244Z,19.81
2022-10-28T11:01:09.872Z,20.17
2022-10-28T11:03:48.386Z,19.66
2022-10-28T11:06:24.787Z,19.81
2022-10-28T11:08:58.761Z,19.88
2022-10-28T11:11:37.964Z,19.70
2022-10-28T11:14:29.703Z,20.11
2022-10-28T11:16:59.414Z,19.09
2022-10-28T11:19:37.414Z,19.92
2022-10-28T11:22:29.835Z,20.39
2022-10-28T11:25:19.837Z,20.25
2022-10-28T11:28:33.690Z,19.68
2022-10-28T11:31:10.825Z,20.20
2022-10-28T11:34:03.515Z,20.62
2022-10-28T11:36:36.676Z,20.84
2022-10-28T11:39:16.774Z,20.64
2022-10-28T11:41:51.627Z,20.95
2022-10-28T11:44:33.198Z,20.96
2022-10-28T11:47:16.553Z,20.22
2022-10-28T11:49:48.251Z,20.00
2022-10-28T11:52:19.646Z,20.56
2022-10-28T11:55:09.579Z,20.58
2022-10-28T11:57:43.476Z,20.73
2022-10-28T12:00:26.157Z,20.60
2022-10-28T12:03:15.870Z,20.31
2022-10-28T12:05:50.310Z,20.75
2022-10-28T12:08:41.205Z,20.85
2022-10-28T12:11:15.803Z,21.28
2022-10-28T12:13:44.149Z,19.63
2022-10-28T12:16:21.166Z,20.93
2022-10-28T12:18:52.397Z,20.83
2022-10-28T12:21:23.700Z,19.80
2022-10-28T12:23:52.395Z,20.21
2022-10-28T12:26:20.814Z,20.18
2022-10-28T12:28:54.511Z,20.91
2022-10-28T12:31:39.454Z,20.85
2022-10-28T12:34:10.994Z,20.41
2022-10-28T12:36:43.303Z,20.73
2022-10-28T12:39:23.145Z,20.70
2022-10-28T12:42:00.150Z,21.15
2022-10-28T12:44:28.675Z,21.08
2022-10-28T12:47:00.026Z,20.86
2022-10-28T12:49:28.330Z,20.82
2022-10-28T12:51:57.475Z,21.39
2022-10-28T12:54:37.809Z,21.28
2022-10-28T12:57:13.994Z,21.46
2022-10-28T12:59:44.667Z,21.35
2022-10-28T13:02:52.483Z,20.95
2022-10-28T13:05:24.959Z,20.50
2022-10-28T13:07:59.938Z,19.75
2022-10-28T13:10:49.020Z,20.27
2022-10-28T13:13:33.323Z,20.63
2022-10-28T13:16:06.190Z,20.38
2022-10-28T13:18:51.142Z,19.45
2022-10-28T13:21:49.227Z,19.28
2022-10-28T13:24:29.143Z,19.87
2022-10-28T13:26:57.495Z,19.96
2022-10-28T13:29:31.429Z,19.11
2022-10-28T13:31:59.692Z,19.03
2022-10-28T13:34:39.468Z,18.21
2022-10-28T13:37:08.644Z,18.88
2022-10-28T13:39:37.072Z,18.22
2022-10-28T13:42:19.293Z,19.20
2022-10-28T13:44:51.303Z,18.99
2022-10-28T13:47:24.978Z,19.51
2022-10-28T13:50:09.036Z,19.32
2022-10-28T13:52:41.258Z,19.18
2022-10-28T13:55:38.962Z,19.58
2022-10-28T13:58:21.543Z,19.12
2022-10-28T14:00:53.127Z,19.40
2022-10-28T14:03:26.121Z,18.69
2022-10-28T14:05:55.735Z,18.34
2022-10-28T14:08:39.903Z,18.51
2022-10-28T14:11:22.760Z,18.63
2022-10-28T14:14:00.292Z,18.33
2022-10-28T14:16:38.895Z,18.54
2022-10-28T14:19:17.804Z,18.71
2022-10-28T14:22:03.259Z,18.68
2022-10-28T14:24:41.261Z,17.90
2022-10-28T14:27:11.886Z,18.39
2022-10-28T14:29:44.095Z,18.66
2022-10-28T14:32:31.147Z,18.77
2022-10-28T14:35:13.233Z,19.07
2022-10-28T14:38:06.176Z,18.87
2022-10-28T14:40:35.420Z,18.53
2022-10-28T14:43:18.930Z,18.11
2022-10-28T14:45:55.231Z,18.13
2022-10-28T14:48:42.349Z,18.33
2022-10-28T14:51:17.554Z,18.20
2022-10-28T14:53:46.238Z,17.80
2022-10-28T14:56:28.365Z,16.83
2022-10-28T14:59:25.552Z,17.16
2022-10-28T15:02:04.830Z,16.67
2022-10-28T15:04:35.468Z,16.87
2022-10-28T15:07:04.530Z,16.95
2022-10-28T15:09:35.132Z,16.91
2022-10-28T15:12:06.989Z,17.01
2022-10-28T15:14:52.813Z,16.94
2022-10-28T15:17:37.258Z,17.27
2022-10-28T15:20:18.848Z,17.41
2022-10-28T15:22:47.512Z,17.67
2022-10-28T15:25:18.669Z,17.79
2022-10-28T15:27:47.649Z,17.46
2022-10-28T15:30:19.360Z,17.73
2022-10-28T15:32:47.769Z,17.50
2022-10-28T15:35:29.211Z,17.65
2022-10-28T15:37:59.769Z,17.42
2022-10-28T15:40:30.055Z,17.38
2022-10-28T15:42:59.115Z,17.29
2022-10-28T15:45:28.969Z,17.38
2022-10-28T15:47:59.011Z,16.78
2022-10-28T15:50:32.616Z,16.79
2022-10-28T15:53:10.135Z,16.35
2022-10-28T15:56:06.860Z,16.60
2022-10-28T15:58:35.938Z,15.54
2022-10-28T16:01:27.627Z,14.96
2022-10-28T16:03:57.444Z,15.63
2022-10-28T16:06:39.373Z,15.95
2022-10-28T16:09:23.987Z,15.78
2022-10-28T16:11:57.939Z,15.84
2022-10-28T16:14:40.929Z,15.51
2022-10-28T16:17:19.860Z,15.44
2022-10-28T16:20:05.690Z,15.51
2022-10-28T16:22:38.487Z,15.33
2022-10-28T16:25:17.696Z,15.58
2022-10-28T16:28:06.137Z,15.33
2022-10-28T16:30:39.288Z,15.36
2022-10-28T16:33:09.600Z,15.32
2022-10-28T16:35:40.152Z,15.34
2022-10-28T16:38:15.050Z,14.97
2022-10-28T16:40:51.521Z,14.55
2022-10-28T16:43:23.431Z,14.92
2022-10-28T16:45:54.073Z,14.32
2022-10-28T16:48:36.346Z,14.64
2022-10-28T16:51:17.953Z,14.32
2022-10-28T16:53:51.163Z,14.30
2022-10-28T16:56:19.556Z,14.41
2022-10-28T16:58:49.951Z,14.21
2022-10-28T17:01:22.257Z,13.93
2022-10-28T17:03:51.607Z,13.63
2022-10-28T17:06:20.651Z,13.22
2022-10-28T17:09:02.256Z,13.49
2022-10-28T17:11:45.814Z,13.37
2022-10-28T17:14:17.406Z,13.58
2022-10-28T17:16:46.831Z,13.40
2022-10-28T17:19:18.760Z,13.54
2022-10-28T17:21:58.213Z,13.22
2022-10-28T17:24:26.687Z,13.09
2022-10-28T17:26:57.387Z,13.12
2022-10-28T17:29:26.213Z,13.20
2022-10-28T17:31:59.519Z,13.08
2022-10-28T17:34:28.590Z,13.28
2022-10-28T17:36:57.214Z,13.37
2022-10-28T17:39:26.614Z,13.00
2022-10-28T17:41:55.216Z,12.74
2022-10-28T17:44:23.997Z,12.41
2022-10-28T17:46:54.902Z,12.03
2022-10-28T17:49:26.913Z,11.75
2022-10-28T17:51:56.507Z,12.06
2022-10-28T17:54:37.154Z,11.91
2022-10-28T17:57:06.201Z,12.15
2022-10-28T17:59:36.213Z,11.72
2022-10-28T18:02:19.029Z,11.38
2022-10-28T18:04:50.313Z,10.96
2022-10-28T18:07:19.143Z,11.37
2022-10-28T18:09:47.721Z,11.66
2022-10-28T18:12:17.941Z,11.30
2022-10-28T18:14:54.125Z,11.24
2022-10-28T18:17:23.774Z,11.36
2022-10-28T18:19:53.070Z,11.02
2022-10-28T18:22:22.138Z,11.32
2022-10-28T18:24:50.841Z,10.67
2022-10-28T18:27:22.158Z,10.42
2022-10-28T18:29:52.260Z,10.75
2022-10-28T18:32:22.053Z,11.04
2022-10-28T18:34:50.549Z,10.77
2022-10-28T18:37:20.381Z,10.79
2022-10-28T18:39:49.979Z,10.98
2022-10-28T18:42:22.021Z,11.02
2022-10-28T18:44:58.635Z,10.98
2022-10-28T18:47:27.554Z,10.91
2022-10-28T18:49:57.578Z,10.71
2022-10-28T18:52:25.978Z,10.81
2022-10-28T18:54:55.820Z,10.90
2022-10-28T18:57:25.159Z,10.85
2022-10-28T19:02:47.384Z,11.02
2022-10-28T19:05:18.189Z,11.03
2022-10-28T19:07:47.828Z,10.96
2022-10-28T19:10:19.192Z,10.77
2022-10-28T19:12:52.797Z,11.13
2022-10-28T19:15:21.582Z,10.88
2022-10-28T19:17:54.127Z,10.96
2022-10-28T19:20:27.738Z,10.97
2022-10-28T19:22:57.747Z,10.88
2022-10-28T19:25:26.473Z,10.75
2022-10-28T19:27:55.287Z,10.86
2022-10-28T19:30:24.915Z,10.93
2022-10-28T19:32:53.555Z,10.84
2022-10-28T19:35:24.917Z,10.46
2022-10-28T19:37:54.028Z,10.74
2022-10-28T19:40:22.518Z,10.54
2022-10-28T19:42:54.059Z,10.34
2022-10-28T19:45:23.253Z,10.47
2022-10-28T19:47:53.659Z,10.54
2022-10-28T19:50:22.957Z,10.66
2022-10-28T19:52:51.422Z,10.44
2022-10-28T19:55:19.729Z,10.12
2022-10-28T19:57:50.401Z,10.35
2022-10-28T20:00:21.350Z,9.76
2022-10-28T20:02:50.838Z,8.70
2022-10-28T20:05:21.828Z,9.42
2022-10-28T20:07:50.667Z,9.74
2022-10-28T20:10:19.059Z,9.38
2022-10-28T20:12:47.737Z,9.09
2022-10-28T20:15:16.694Z,9.51
2022-10-28T20:17:45.208Z,9.78
2022-10-28T20:20:15.340Z,9.70
2022-10-28T20:22:46.609Z,9.64
2022-10-28T20:25:15.788Z,9.19
2022-10-28T20:27:45.031Z,8.98
2022-10-28T20:30:15.369Z,9.05
2022-10-28T20:32:43.859Z,9.37
2022-10-28T20:35:12.830Z,9.57
2022-10-28T20:37:41.270Z,9.36
2022-10-28T20:40:10.100Z,8.95
2022-10-28T20:42:38.599Z,8.82
2022-10-28T20:45:10.902Z,8.56
2022-10-28T20:47:40.902Z,8.88
2022-10-28T20:50:09.431Z,9.21
2022-10-28T20:52:37.759Z,9.55
2022-10-28T20:55:07.817Z,9.58
2022-10-28T20:57:38.539Z,9.04
2022-10-28T21:00:09.111Z,8.86
2022-10-28T21:02:37.539Z,8.94
2022-10-28T21:05:06.659Z,8.84
2022-10-28T21:07:36.179Z,8.19
2022-10-28T21:10:04.749Z,8.44
2022-10-28T21:12:33.063Z,8.89
2022-10-28T21:15:01.429Z,9.02
2022-10-28T21:17:30.618Z,8.86
2022-10-28T21:19:58.908Z,8.87
2022-10-28T21:22:27.276Z,8.65
2022-10-28T21:24:55.578Z,8.92
2022-10-28T21:27:23.928Z,9.04
2022-10-28T21:29:52.346Z,8.79
2022-10-28T21:32:21.328Z,8.56
2022-10-28T21:34:49.680Z,8.45
2022-10-28T21:37:18.678Z,8.74
2022-10-28T21:39:53.569Z,8.87
2022-10-28T21:42:24.408Z,8.84
2022-10-28T21:44:53.181Z,8.65
2022-10-28T21:49:54.695Z,8.39
2022-10-28T21:52:23.713Z,7.25
2022-10-28T21:54:52.014Z,7.00
2022-10-28T21:57:20.318Z,6.84
2022-10-28T21:59:49.768Z,7.36
2022-10-28T22:02:18.241Z,7.89
2022-10-28T22:04:47.424Z,7.13
2022-10-28T22:07:15.790Z,7.49
2022-10-28T22:09:44.121Z,6.99
2022-10-28T22:12:12.949Z,6.82
2022-10-28T22:14:41.705Z,7.56
2022-10-28T22:17:10.071Z,7.08
2022-10-28T22:19:38.443Z,6.31
2022-10-28T22:22:06.736Z,6.26
2022-10-28T22:24:35.098Z,6.40
2022-10-28T22:27:03.373Z,7.32
2022-10-28T22:29:31.681Z,7.07
2022-10-28T22:31:59.963Z,7.44
2022-10-28T22:34:28.194Z,6.55
2022-10-28T22:36:56.458Z,7.04
2022-10-28T22:39:24.762Z,7.52
2022-10-28T22:41:53.030Z,7.38
2022-10-28T22:44:21.330Z,7.47
2022-10-28T22:46:49.669Z,7.04
2022-10-28T22:49:18.112Z,7.28
2022-10-28T22:51:46.873Z,7.39
2022-10-28T22:54:15.258Z,6.79
2022-10-28T22:56:46.321Z,6.77
2022-10-28T22:59:14.735Z,7.20
2022-10-28T23:01:43.083Z,6.90
2022-10-28T23:04:11.941Z,6.13
2022-10-28T23:06:40.251Z,5.91
2022-10-28T23:09:08.613Z,5.62
2022-10-28T23:11:37.610Z,5.89
2022-10-28T23:14:06.698Z,5.73
2022-10-28T23:16:34.970Z,5.91
2022-10-28T23:19:03.317Z,5.77
2022-10-28T23:21:31.620Z,6.04
2022-10-28T23:24:00.523Z,5.90
2022-10-28T23:26:29.402Z,5.72
2022-10-28T23:28:59.924Z,5.86
2022-10-28T23:31:28.350Z,4.83
2022-10-28T23:33:56.758Z,5.31
2022-10-28T23:36:25.593Z,5.11
2022-10-28T23:38:56.550Z,5.23
2022-10-28T23:41:24.821Z,5.51
2022-10-28T23:43:53.622Z,5.63
2022-10-28T23:46:22.010Z,6.23
2022-10-28T23:48:50.353Z,6.19
2022-10-28T23:51:19.641Z,6.03
2022-10-28T23:53:48.033Z,6.53
2022-10-28T23:56:16.386Z,6.62
2022-10-28T23:58:44.708Z,6.75
